Garelochhead, United Kingdom
Current Conditions -  °F | °C
As of 10:50 PM on Thursday 23 Oct 2014 (Local Time) from EGPF Reporting Station
Broken Clouds Broken Clouds  
Wind Chill: 52°   Ceiling: 4900
Heat Index: 52°   Visibility: 6mi
Dew Point: 48°   Wind: 12mph
Humidity: 88%   Direction: 230°SW
Pressure: 29.74"   Gusts: NA
Location:  56.08°N, 4.83°W
Report Text: EGPF 232150Z AUTO 23010KT 9999 FEW022 SCT034 BKN049 11/09 Q1007
Loading
Personal Weather Stations






























Interactive Weather Map
Tropical Storm Tracking
New forecast layout! Learn more

10-Day Weather Forecast

Advertisements
Track Severe Weather on mobile